createdAt,value
2022-10-09T00:01:10.107Z,14.44
2022-10-09T00:03:38.179Z,14.44
2022-10-09T00:06:11.684Z,14.45
2022-10-09T00:08:44.772Z,13.89
2022-10-09T00:11:19.971Z,13.57
2022-10-09T00:13:47.331Z,13.64
2022-10-09T00:16:18.772Z,14.08
2022-10-09T00:18:50.370Z,14.40
2022-10-09T00:21:39.930Z,14.39
2022-10-09T00:24:06.718Z,13.49
2022-10-09T00:26:33.681Z,13.70
2022-10-09T00:29:00.613Z,14.39
2022-10-09T00:31:27.326Z,13.82
2022-10-09T00:33:58.936Z,13.31
2022-10-09T00:36:26.356Z,14.39
2022-10-09T00:38:56.239Z,13.50
2022-10-09T00:41:26.398Z,14.06
2022-10-09T00:43:56.813Z,14.18
2022-10-09T00:46:42.663Z,14.21
2022-10-09T00:49:25.103Z,14.20
2022-10-09T00:51:52.008Z,14.19
2022-10-09T00:54:22.949Z,13.68
2022-10-09T00:56:51.858Z,14.17
2022-10-09T00:59:19.125Z,14.15
2022-10-09T01:01:46.018Z,14.16
2022-10-09T01:04:14.956Z,14.17
2022-10-09T01:06:50.251Z,14.16
2022-10-09T01:09:20.367Z,13.68
2022-10-09T01:11:53.520Z,14.15
2022-10-09T01:14:37.610Z,13.51
2022-10-09T01:17:19.539Z,14.19
2022-10-09T01:19:49.136Z,14.22
2022-10-09T01:22:30.283Z,14.27
2022-10-09T01:25:06.272Z,14.31
2022-10-09T01:27:36.862Z,14.33
2022-10-09T01:30:11.920Z,13.94
2022-10-09T01:32:42.780Z,14.25
2022-10-09T01:35:13.181Z,13.32
2022-10-09T01:37:42.238Z,13.46
2022-10-09T01:40:13.294Z,13.54
2022-10-09T01:42:47.101Z,13.50
2022-10-09T01:45:17.925Z,13.90
2022-10-09T01:47:46.862Z,14.15
2022-10-09T01:50:28.763Z,14.19
2022-10-09T01:53:02.058Z,14.18
2022-10-09T01:55:31.808Z,14.15
2022-10-09T01:58:05.969Z,14.21
2022-10-09T02:00:38.357Z,13.97
2022-10-09T02:03:07.354Z,13.80
2022-10-09T02:05:34.273Z,14.07
2022-10-09T02:08:03.519Z,14.33
2022-10-09T02:10:31.105Z,13.25
2022-10-09T02:12:59.518Z,14.17
2022-10-09T02:15:49.115Z,13.26
2022-10-09T02:18:37.279Z,14.37
2022-10-09T02:21:13.346Z,13.65
2022-10-09T02:23:41.313Z,14.45
2022-10-09T02:26:09.357Z,14.51
2022-10-09T02:28:36.683Z,14.21
2022-10-09T02:31:26.268Z,14.62
2022-10-09T02:33:57.645Z,13.92
2022-10-09T02:36:28.094Z,14.11
2022-10-09T02:38:58.004Z,13.41
2022-10-09T02:41:30.482Z,14.11
2022-10-09T02:43:57.326Z,14.61
2022-10-09T02:46:26.682Z,14.58
2022-10-09T02:48:53.555Z,13.99
2022-10-09T02:51:25.672Z,13.58
2022-10-09T02:53:59.635Z,14.16
2022-10-09T02:56:29.082Z,14.08
2022-10-09T02:59:01.130Z,14.27
2022-10-09T03:01:32.369Z,14.02
2022-10-09T03:04:02.273Z,14.17
2022-10-09T03:06:34.308Z,14.73
2022-10-09T03:09:03.144Z,14.20
2022-10-09T03:11:29.865Z,14.46
2022-10-09T03:13:56.640Z,13.63
2022-10-09T03:16:25.134Z,14.68
2022-10-09T03:18:52.834Z,14.85
2022-10-09T03:21:24.670Z,14.83
2022-10-09T03:23:52.374Z,14.30
2022-10-09T03:26:22.162Z,14.24
2022-10-09T03:28:50.015Z,14.91
2022-10-09T03:31:39.803Z,14.86
2022-10-09T03:34:04.944Z,14.27
2022-10-09T03:36:31.671Z,14.58
2022-10-09T03:38:58.535Z,14.33
2022-10-09T03:41:28.279Z,14.47
2022-10-09T03:43:59.620Z,14.18
2022-10-09T03:46:28.708Z,14.15
2022-10-09T03:48:55.427Z,15.07
2022-10-09T03:51:22.236Z,14.60
2022-10-09T03:53:49.040Z,14.99
2022-10-09T03:56:23.125Z,14.52
2022-10-09T03:58:52.428Z,15.04
2022-10-09T04:01:19.189Z,15.01
2022-10-09T04:03:47.971Z,14.24
2022-10-09T04:06:17.411Z,14.92
2022-10-09T04:08:44.247Z,14.81
2022-10-09T04:11:14.163Z,14.62
2022-10-09T04:13:41.049Z,15.24
2022-10-09T04:16:13.096Z,15.28
2022-10-09T04:18:44.120Z,14.69
2022-10-09T04:21:12.858Z,14.55
2022-10-09T04:23:40.010Z,14.49
2022-10-09T04:26:09.055Z,15.43
2022-10-09T04:28:42.801Z,14.71
2022-10-09T04:31:12.474Z,14.91
2022-10-09T04:33:39.567Z,13.98
2022-10-09T04:36:06.673Z,14.31
2022-10-09T04:38:33.584Z,14.59
2022-10-09T04:41:03.276Z,14.41
2022-10-09T04:43:30.674Z,14.36
2022-10-09T04:46:03.584Z,14.64
2022-10-09T04:48:30.546Z,14.62
2022-10-09T04:51:05.193Z,14.46
2022-10-09T04:53:34.239Z,14.29
2022-10-09T04:56:06.195Z,12.95
2022-10-09T04:58:35.395Z,14.55
2022-10-09T05:01:06.427Z,14.95
2022-10-09T05:03:36.028Z,14.58
2022-10-09T05:06:07.137Z,15.06
2022-10-09T05:08:35.920Z,14.24
2022-10-09T05:11:08.048Z,14.89
2022-10-09T05:13:40.516Z,15.14
2022-10-09T05:16:10.786Z,14.12
2022-10-09T05:18:46.157Z,15.00
2022-10-09T05:21:13.278Z,14.83
2022-10-09T05:23:46.475Z,15.39
2022-10-09T05:26:20.881Z,14.54
2022-10-09T05:28:48.078Z,15.05
2022-10-09T05:31:26.734Z,15.39
2022-10-09T05:33:54.292Z,15.35
2022-10-09T05:36:21.334Z,15.29
2022-10-09T05:38:54.367Z,15.46
2022-10-09T05:41:21.414Z,15.12
2022-10-09T05:43:51.470Z,15.04
2022-10-09T05:46:23.453Z,14.81
2022-10-09T05:48:55.177Z,14.83
2022-10-09T05:51:31.105Z,15.27
2022-10-09T05:53:58.926Z,14.57
2022-10-09T05:56:34.917Z,14.83
2022-10-09T05:59:04.040Z,14.64
2022-10-09T06:01:37.514Z,14.63
2022-10-09T06:04:08.584Z,14.47
2022-10-09T06:06:44.413Z,14.76
2022-10-09T06:09:15.280Z,15.13
2022-10-09T06:11:42.288Z,13.26
2022-10-09T06:14:15.527Z,13.21
2022-10-09T06:16:45.828Z,15.02
2022-10-09T06:19:20.971Z,15.00
2022-10-09T06:21:47.967Z,14.32
2022-10-09T06:24:28.680Z,14.27
2022-10-09T06:26:55.882Z,14.65
2022-10-09T06:29:22.614Z,14.50
2022-10-09T06:34:35.405Z,14.30
2022-10-09T06:37:04.508Z,14.80
2022-10-09T06:39:31.236Z,14.46
2022-10-09T06:42:00.306Z,14.67
2022-10-09T06:44:38.452Z,14.53
2022-10-09T06:47:05.198Z,14.59
2022-10-09T06:49:34.337Z,14.98
2022-10-09T06:52:03.265Z,14.68
2022-10-09T06:54:32.446Z,14.78
2022-10-09T06:56:59.141Z,14.95
2022-10-09T06:59:28.307Z,14.71
2022-10-09T07:01:57.024Z,14.59
2022-10-09T07:04:26.290Z,15.26
2022-10-09T07:06:55.457Z,15.67
2022-10-09T07:09:22.215Z,15.73
2022-10-09T07:11:51.194Z,15.43
2022-10-09T07:14:20.836Z,15.24
2022-10-09T07:16:48.901Z,16.16
2022-10-09T07:19:18.868Z,15.92
2022-10-09T07:21:50.811Z,15.19
2022-10-09T07:24:20.413Z,16.34
2022-10-09T07:26:49.725Z,16.22
2022-10-09T07:29:18.316Z,16.05
2022-10-09T07:31:45.603Z,16.13
2022-10-09T07:34:14.667Z,15.92
2022-10-09T07:36:43.644Z,15.85
2022-10-09T07:39:10.674Z,16.16
2022-10-09T07:41:43.336Z,16.35
2022-10-09T07:44:12.449Z,16.67
2022-10-09T07:46:41.579Z,17.13
2022-10-09T07:49:10.960Z,17.26
2022-10-09T07:51:39.885Z,17.17
2022-10-09T07:54:08.829Z,17.03
2022-10-09T07:56:39.229Z,17.02
2022-10-09T07:59:15.218Z,17.86
2022-10-09T08:01:42.982Z,17.95
2022-10-09T08:04:17.429Z,18.00
2022-10-09T08:06:49.640Z,17.32
2022-10-09T08:09:17.920Z,17.03
2022-10-09T08:11:44.903Z,17.32
2022-10-09T08:14:19.588Z,18.09
2022-10-09T08:16:48.301Z,18.34
2022-10-09T08:19:17.475Z,18.47
2022-10-09T08:21:49.579Z,18.32
2022-10-09T08:24:18.715Z,18.25
2022-10-09T08:26:45.388Z,18.73
2022-10-09T08:29:16.019Z,17.71
2022-10-09T08:31:42.769Z,18.95
2022-10-09T08:34:10.624Z,18.02
2022-10-09T08:36:37.293Z,18.62
2022-10-09T08:39:09.537Z,18.58
2022-10-09T08:41:46.008Z,19.29
2022-10-09T08:44:28.387Z,19.41
2022-10-09T08:47:09.562Z,19.50
2022-10-09T08:50:33.449Z,19.62
2022-10-09T08:53:11.387Z,18.72
2022-10-09T08:55:56.633Z,18.94
2022-10-09T08:58:32.311Z,19.96
2022-10-09T09:01:05.612Z,19.61
2022-10-09T09:03:46.942Z,20.06
2022-10-09T09:06:34.648Z,20.17
2022-10-09T09:09:45.225Z,19.17
2022-10-09T09:12:17.558Z,20.30
2022-10-09T09:15:02.932Z,20.40
2022-10-09T09:17:47.229Z,20.55
2022-10-09T09:20:49.234Z,19.66
2022-10-09T09:23:26.947Z,20.96
2022-10-09T09:25:56.499Z,20.89
2022-10-09T09:28:31.670Z,20.40
2022-10-09T09:31:09.440Z,19.80
2022-10-09T09:33:44.993Z,21.49
2022-10-09T09:36:46.358Z,21.63
2022-10-09T09:40:18.334Z,20.45
2022-10-09T09:42:10.895Z,21.44
2022-10-09T09:45:00.984Z,21.67
2022-10-09T09:47:50.983Z,21.56
2022-10-09T09:50:48.497Z,22.28
2022-10-09T09:53:34.652Z,21.90
2022-10-09T09:56:07.912Z,21.65
2022-10-09T09:58:46.947Z,22.36
2022-10-09T10:01:21.239Z,22.82
2022-10-09T10:03:55.455Z,22.94
2022-10-09T10:06:45.630Z,23.11
2022-10-09T10:09:18.896Z,22.64
2022-10-09T10:12:14.901Z,23.66
2022-10-09T10:14:50.173Z,23.29
2022-10-09T10:17:26.651Z,22.42
2022-10-09T10:20:01.917Z,23.24
2022-10-09T10:22:33.938Z,23.62
2022-10-09T10:25:06.426Z,24.17
2022-10-09T10:27:39.910Z,23.37
2022-10-09T10:30:10.118Z,23.24
2022-10-09T10:33:16.272Z,23.76
2022-10-09T10:35:46.234Z,20.38
2022-10-09T10:38:57.502Z,24.27
2022-10-09T10:41:37.904Z,24.74
2022-10-09T10:44:14.312Z,24.86
2022-10-09T10:47:15.275Z,24.39
2022-10-09T10:49:42.070Z,23.93
2022-10-09T10:52:46.975Z,24.12
2022-10-09T10:55:28.941Z,23.42
2022-10-09T10:58:05.867Z,23.52
2022-10-09T11:00:34.690Z,22.36
2022-10-09T11:03:26.272Z,22.92
2022-10-09T11:06:19.410Z,22.44
2022-10-09T11:09:04.857Z,22.75
2022-10-09T11:11:34.505Z,22.80
2022-10-09T11:14:04.489Z,22.69
2022-10-09T11:16:39.386Z,22.81
2022-10-09T11:19:19.249Z,22.78
2022-10-09T11:22:15.634Z,22.68
2022-10-09T11:24:47.872Z,24.11
2022-10-09T11:27:17.518Z,24.19
2022-10-09T11:29:53.252Z,23.54
2022-10-09T11:32:47.645Z,24.71
2022-10-09T11:35:29.568Z,23.94
2022-10-09T11:38:02.640Z,24.76
2022-10-09T11:40:40.720Z,24.42
2022-10-09T11:43:07.498Z,24.67
2022-10-09T11:45:46.575Z,24.45
2022-10-09T11:48:19.608Z,24.25
2022-10-09T11:50:59.028Z,24.59
2022-10-09T11:53:28.699Z,24.45
2022-10-09T11:56:09.687Z,24.77
2022-10-09T11:58:36.980Z,24.44
2022-10-09T12:01:24.700Z,24.67
2022-10-09T12:04:05.115Z,24.20
2022-10-09T12:06:33.437Z,24.04
2022-10-09T12:09:07.697Z,24.04
2022-10-09T12:11:36.344Z,23.81
2022-10-09T12:14:08.181Z,24.68
2022-10-09T12:16:41.639Z,25.48
2022-10-09T12:19:23.505Z,25.66
2022-10-09T12:22:07.934Z,26.93
2022-10-09T12:24:43.681Z,27.42
2022-10-09T12:27:28.574Z,27.86
2022-10-09T12:29:57.929Z,27.43
2022-10-09T12:32:35.577Z,27.25
2022-10-09T12:35:11.233Z,28.14
2022-10-09T12:37:37.962Z,27.70
2022-10-09T12:40:16.923Z,28.49
2022-10-09T12:42:49.342Z,27.87
2022-10-09T12:45:18.513Z,27.86
2022-10-09T12:47:47.860Z,26.87
2022-10-09T12:50:47.079Z,27.75
2022-10-09T12:53:22.356Z,28.01
2022-10-09T12:55:55.415Z,29.27
2022-10-09T12:58:24.626Z,29.62
2022-10-09T13:00:54.177Z,29.52
2022-10-09T13:03:39.065Z,29.00
2022-10-09T13:06:14.588Z,28.72
2022-10-09T13:08:41.613Z,28.97
2022-10-09T13:11:21.009Z,29.36
2022-10-09T13:13:55.088Z,30.47
2022-10-09T13:16:23.152Z,29.80
2022-10-09T13:19:05.624Z,29.71
2022-10-09T13:21:36.579Z,29.87
2022-10-09T13:24:13.414Z,30.80
2022-10-09T13:26:42.928Z,31.55
2022-10-09T13:29:12.041Z,31.26
2022-10-09T13:31:43.862Z,31.13
2022-10-09T13:34:12.716Z,32.45
2022-10-09T13:36:39.556Z,32.95
2022-10-09T13:39:17.911Z,31.38
2022-10-09T13:41:44.947Z,28.50
2022-10-09T13:44:18.809Z,28.37
2022-10-09T13:46:47.922Z,26.90
2022-10-09T13:49:19.469Z,30.32
2022-10-09T13:51:48.500Z,30.15
2022-10-09T13:54:26.927Z,29.92
2022-10-09T13:56:56.514Z,30.34
2022-10-09T13:59:28.705Z,27.56
2022-10-09T14:01:57.089Z,29.01
2022-10-09T14:04:26.614Z,29.63
2022-10-09T14:07:03.131Z,28.77
2022-10-09T14:09:30.098Z,28.06
2022-10-09T14:12:00.795Z,27.88
2022-10-09T14:15:30.081Z,28.13
2022-10-09T14:17:17.328Z,27.74
2022-10-09T14:19:48.338Z,27.55
2022-10-09T14:22:15.580Z,27.49
2022-10-09T14:24:46.880Z,27.54
2022-10-09T14:27:18.971Z,27.80
2022-10-09T14:29:53.070Z,28.17
2022-10-09T14:32:27.313Z,27.36
2022-10-09T14:34:54.116Z,27.33
2022-10-09T14:37:40.540Z,28.73
2022-10-09T14:40:08.463Z,28.32
2022-10-09T14:42:36.976Z,27.63
2022-10-09T14:45:09.717Z,27.05
2022-10-09T14:47:36.462Z,28.60
2022-10-09T14:50:03.412Z,28.69
2022-10-09T14:52:33.302Z,28.62
2022-10-09T14:55:00.288Z,27.91
2022-10-09T14:57:34.382Z,27.96
2022-10-09T15:00:02.497Z,28.06
2022-10-09T15:02:31.579Z,27.76
2022-10-09T15:05:00.639Z,26.34
2022-10-09T15:07:33.796Z,26.22
2022-10-09T15:10:03.177Z,25.48
2022-10-09T15:12:32.145Z,25.90
2022-10-09T15:15:01.463Z,24.35
2022-10-09T15:17:32.340Z,24.13
2022-10-09T15:19:58.983Z,23.65
2022-10-09T15:22:30.496Z,24.03
2022-10-09T15:24:57.208Z,23.20
2022-10-09T15:27:26.250Z,23.85
2022-10-09T15:29:58.018Z,23.61
2022-10-09T15:32:26.980Z,23.68
2022-10-09T15:34:58.410Z,23.32
2022-10-09T15:37:29.576Z,22.62
2022-10-09T15:39:56.440Z,22.86
2022-10-09T15:42:23.273Z,22.14
2022-10-09T15:44:52.314Z,22.76
2022-10-09T15:47:27.100Z,22.42
2022-10-09T15:50:06.360Z,22.29
2022-10-09T15:52:37.697Z,21.93
2022-10-09T15:55:06.741Z,22.44
2022-10-09T15:57:36.556Z,22.32
2022-10-09T16:00:05.874Z,21.17
2022-10-09T16:02:37.407Z,21.62
2022-10-09T16:05:06.557Z,21.09
2022-10-09T16:07:33.246Z,20.88
2022-10-09T16:10:06.599Z,21.83
2022-10-09T16:12:40.581Z,20.87
2022-10-09T16:15:07.931Z,21.36
2022-10-09T16:17:34.703Z,20.53
2022-10-09T16:20:01.443Z,21.16
2022-10-09T16:22:30.389Z,20.79
2022-10-09T16:24:57.183Z,21.20
2022-10-09T16:27:26.258Z,20.21
2022-10-09T16:29:56.044Z,20.23
2022-10-09T16:32:25.142Z,20.28
2022-10-09T16:34:51.912Z,20.03
2022-10-09T16:37:18.627Z,20.09
2022-10-09T16:39:45.484Z,19.43
2022-10-09T16:42:12.197Z,19.98
2022-10-09T16:44:38.981Z,19.21
2022-10-09T16:47:07.917Z,20.19
2022-10-09T16:49:34.677Z,19.34
2022-10-09T16:52:01.882Z,19.54
2022-10-09T16:54:28.584Z,19.90
2022-10-09T16:56:55.321Z,19.15
2022-10-09T16:59:22.068Z,19.35
2022-10-09T17:01:49.636Z,17.63
2022-10-09T17:04:16.880Z,15.94
2022-10-09T17:06:46.517Z,18.53
2022-10-09T17:09:15.691Z,18.46
2022-10-09T17:11:42.505Z,19.16
2022-10-09T17:14:09.175Z,18.77
2022-10-09T17:16:40.283Z,18.18
2022-10-09T17:19:09.749Z,18.35
2022-10-09T17:21:41.516Z,18.68
2022-10-09T17:24:15.024Z,18.25
2022-10-09T17:26:44.242Z,17.98
2022-10-09T17:29:12.932Z,18.68
2022-10-09T17:31:39.620Z,17.82
2022-10-09T17:34:06.700Z,18.30
2022-10-09T17:36:37.118Z,17.87
2022-10-09T17:39:05.751Z,18.46
2022-10-09T17:41:33.027Z,16.89
2022-10-09T17:44:03.796Z,17.53
2022-10-09T17:46:31.293Z,17.53
2022-10-09T17:48:59.494Z,18.06
2022-10-09T17:51:27.573Z,18.31
2022-10-09T17:54:01.119Z,18.29
2022-10-09T17:56:28.723Z,16.98
2022-10-09T17:58:58.379Z,17.88
2022-10-09T18:01:30.433Z,17.27
2022-10-09T18:03:59.920Z,17.80
2022-10-09T18:06:30.824Z,17.73
2022-10-09T18:08:59.873Z,17.67
2022-10-09T18:11:27.262Z,18.18
2022-10-09T18:13:57.222Z,17.90
2022-10-09T18:16:35.349Z,17.81
2022-10-09T18:19:07.862Z,17.59
2022-10-09T18:21:38.576Z,17.06
2022-10-09T18:24:05.394Z,18.14
2022-10-09T18:26:34.353Z,18.15
2022-10-09T18:29:03.429Z,18.08
2022-10-09T18:31:30.272Z,17.44
2022-10-09T18:33:59.310Z,18.10
2022-10-09T18:36:31.374Z,17.80
2022-10-09T18:39:09.877Z,17.94
2022-10-09T18:41:37.251Z,17.53
2022-10-09T18:44:04.609Z,17.88
2022-10-09T18:46:36.274Z,16.45
2022-10-09T18:49:08.128Z,17.06
2022-10-09T18:51:41.373Z,17.29
2022-10-09T18:54:17.977Z,16.96
2022-10-09T18:56:48.026Z,16.56
2022-10-09T18:59:19.890Z,17.52
2022-10-09T19:01:49.140Z,16.60
2022-10-09T19:04:16.050Z,16.83
2022-10-09T19:06:42.752Z,17.12
2022-10-09T19:09:12.331Z,16.46
2022-10-09T19:11:39.155Z,16.54
2022-10-09T19:14:08.285Z,17.06
2022-10-09T19:16:35.641Z,16.36
2022-10-09T19:19:10.119Z,16.64
2022-10-09T19:21:43.798Z,16.92
2022-10-09T19:24:15.807Z,17.22
2022-10-09T19:26:42.744Z,17.14
2022-10-09T19:29:11.799Z,15.79
2022-10-09T19:31:38.588Z,16.60
2022-10-09T19:34:05.892Z,15.81
2022-10-09T19:36:34.375Z,15.49
2022-10-09T19:39:01.662Z,17.22
2022-10-09T19:41:32.993Z,16.60
2022-10-09T19:44:00.384Z,16.64
2022-10-09T19:46:31.957Z,16.61
2022-10-09T19:48:58.778Z,16.31
2022-10-09T19:51:27.911Z,16.73
2022-10-09T19:53:58.900Z,15.99
2022-10-09T19:56:28.232Z,16.78
2022-10-09T19:58:55.722Z,16.24
2022-10-09T20:01:27.051Z,17.32
2022-10-09T20:03:58.613Z,16.63
2022-10-09T20:06:30.179Z,16.22
2022-10-09T20:09:00.152Z,17.27
2022-10-09T20:11:29.464Z,17.20
2022-10-09T20:13:56.979Z,16.42
2022-10-09T20:16:33.268Z,16.98
2022-10-09T20:19:03.997Z,16.89
2022-10-09T20:21:51.346Z,14.91
2022-10-09T20:24:20.504Z,15.59
2022-10-09T20:26:51.745Z,15.72
2022-10-09T20:29:21.567Z,15.92
2022-10-09T20:31:51.279Z,15.61
2022-10-09T20:34:20.462Z,15.04
2022-10-09T20:36:47.188Z,15.49
2022-10-09T20:39:14.825Z,15.54
2022-10-09T20:41:42.832Z,16.31
2022-10-09T20:44:10.903Z,14.74
2022-10-09T20:46:40.811Z,14.93
2022-10-09T20:49:11.324Z,15.28
2022-10-09T20:51:40.917Z,15.25
2022-10-09T20:54:18.690Z,15.67
2022-10-09T20:56:46.930Z,15.96
2022-10-09T20:59:19.296Z,15.07
2022-10-09T21:01:46.473Z,15.10
2022-10-09T21:04:14.791Z,15.83
2022-10-09T21:06:44.219Z,14.87
2022-10-09T21:09:11.293Z,13.37
2022-10-09T21:11:40.230Z,14.59
2022-10-09T21:14:09.680Z,15.63
2022-10-09T21:16:38.860Z,14.47
2022-10-09T21:19:06.535Z,15.38
2022-10-09T21:21:33.571Z,15.40
2022-10-09T21:24:03.094Z,15.38
2022-10-09T21:26:31.164Z,15.34
2022-10-09T21:28:59.931Z,15.02
2022-10-09T21:31:28.913Z,14.78
2022-10-09T21:33:59.699Z,15.27
2022-10-09T21:36:32.657Z,14.57
2022-10-09T21:39:01.561Z,15.19
2022-10-09T21:41:28.534Z,15.17
2022-10-09T21:43:55.251Z,13.44
2022-10-09T21:46:22.803Z,13.92
2022-10-09T21:48:49.826Z,13.46
2022-10-09T21:51:16.807Z,13.74
2022-10-09T21:53:45.805Z,13.81
2022-10-09T21:56:13.557Z,12.99
2022-10-09T21:58:48.130Z,14.96
2022-10-09T22:01:20.777Z,14.24
2022-10-09T22:03:47.712Z,14.83
2022-10-09T22:06:19.169Z,14.31
2022-10-09T22:08:47.872Z,14.42
2022-10-09T22:11:15.215Z,14.08
2022-10-09T22:13:44.759Z,14.00
2022-10-09T22:16:13.455Z,13.61
2022-10-09T22:18:42.910Z,13.51
2022-10-09T22:21:18.533Z,13.56
2022-10-09T22:23:45.325Z,13.22
2022-10-09T22:26:14.742Z,12.43
2022-10-09T22:28:41.594Z,13.11
2022-10-09T22:31:14.442Z,14.26
2022-10-09T22:33:43.627Z,13.21
2022-10-09T22:36:14.106Z,14.29
2022-10-09T22:38:41.944Z,14.28
2022-10-09T22:41:12.454Z,12.85
2022-10-09T22:43:40.409Z,13.42
2022-10-09T22:46:15.859Z,14.28
2022-10-09T22:48:45.249Z,13.10
2022-10-09T22:51:14.798Z,9.47
2022-10-09T22:53:42.254Z,14.20
2022-10-09T22:56:15.703Z,13.78
2022-10-09T22:58:43.011Z,12.96
2022-10-09T23:01:16.149Z,13.93
2022-10-09T23:03:43.624Z,13.96
2022-10-09T23:06:15.628Z,12.79
2022-10-09T23:08:44.289Z,12.52
2022-10-09T23:11:13.978Z,13.85
2022-10-09T23:13:43.855Z,13.65
2022-10-09T23:16:12.160Z,13.64
2022-10-09T23:18:39.706Z,13.79
2022-10-09T23:21:08.859Z,13.80
2022-10-09T23:23:35.825Z,12.87
2022-10-09T23:26:09.547Z,13.49
2022-10-09T23:28:36.615Z,13.68
2022-10-09T23:31:08.283Z,13.59
2022-10-09T23:33:35.581Z,12.97
2022-10-09T23:36:05.582Z,13.40
2022-10-09T23:38:32.580Z,13.52
2022-10-09T23:41:01.089Z,12.72
2022-10-09T23:43:29.201Z,12.67
2022-10-09T23:45:57.986Z,13.51
2022-10-09T23:48:24.919Z,13.18
2022-10-09T23:50:56.982Z,13.43
2022-10-09T23:53:26.022Z,13.00
2022-10-09T23:55:54.181Z,12.77
2022-10-09T23:58:21.459Z,13.16
